WATT/KOE METAR and TAF weather

Enter ICAO airport designator
Station Type Date Time Source
WATT METAR 2020/01/21 09:00 UTC NOAA

WATT 210900Z 31007KT 9999 FEW016 29/26 Q1010 NOSIG


Station Type Date Time Source
WATT Decoded METAR 2020/01/21 09:00 UTC NOAA

Station name not available
Jan 21, 2020 - 04:00 AM EST / 2020.01.21 0900 UTC
Wind: from the NW (310 degrees) at 8 MPH (7 KT):0
Visibility: greater than 7 mile(s):0
Sky conditions: mostly clear
Temperature: 84 F (29 C)
Dew Point: 78 F (26 C)
Relative Humidity: 83%
Pressure (altimeter): 29.83 in. Hg (1010 hPa)
ob: WATT 210900Z 31007KT 9999 FEW016 29/26 Q1010 NOSIG
cycle: 9

Station Type Date Time Source
WATT TAF 2020/01/21 06:00 UTC NOAA

TAF WATT 210500Z 2106/2206 30010KT 9000 FEW015CB SCT017 PROB40
TEMPO 2110/2112 5000 RA PROB40
TEMPO 2120/2122 5000 RA

Example: see airport list